sensor_id;sensor_type;location;lat;lon;timestamp;pressure;altitude;pressure_sealevel;temperature;humidity
6032;BME280;3044;43.232;27.972;2024-03-23T00:52:35;45199.50;;;-143.84;68.66
6032;BME280;3044;43.232;27.972;2024-03-23T00:55:02;45170.94;;;-143.84;69.10
6032;BME280;3044;43.232;27.972;2024-03-23T00:57:29;45193.78;;;-143.84;69.28
6032;BME280;3044;43.232;27.972;2024-03-23T00:59:55;45174.75;;;-143.84;68.83
6032;BME280;3044;43.232;27.972;2024-03-23T01:02:22;45189.97;;;-143.84;69.15
6032;BME280;3044;43.232;27.972;2024-03-23T01:04:48;45210.94;;;-143.84;68.90
6032;BME280;3044;43.232;27.972;2024-03-23T01:07:15;45169.03;;;-143.84;68.86
6032;BME280;3044;43.232;27.972;2024-03-23T01:09:43;45172.84;;;-143.84;68.12
6032;BME280;3044;43.232;27.972;2024-03-23T01:12:10;45212.84;;;-143.84;68.39
6032;BME280;3044;43.232;27.972;2024-03-23T01:14:36;45197.59;;;-143.84;68.52
6032;BME280;3044;43.232;27.972;2024-03-23T01:17:03;45201.41;;;-143.84;68.04
6032;BME280;3044;43.232;27.972;2024-03-23T01:19:29;45184.25;;;-143.84;67.86
6032;BME280;3044;43.232;27.972;2024-03-23T01:21:57;45176.66;;;-143.84;68.10
6032;BME280;3044;43.232;27.972;2024-03-23T01:24:23;45161.41;;;-143.84;67.79
6032;BME280;3044;43.232;27.972;2024-03-23T01:26:51;45210.94;;;-143.84;66.33
6032;BME280;3044;43.232;27.972;2024-03-23T01:29:17;45186.16;;;-143.84;67.12
6032;BME280;3044;43.232;27.972;2024-03-23T01:31:44;45178.56;;;-143.84;66.64
6032;BME280;3044;43.232;27.972;2024-03-23T01:34:11;45197.59;;;-143.84;66.69
6032;BME280;3044;43.232;27.972;2024-03-23T01:36:38;45193.78;;;-143.84;65.97
6032;BME280;3044;43.232;27.972;2024-03-23T01:39:04;45203.31;;;-143.84;65.66
6032;BME280;3044;43.232;27.972;2024-03-23T01:41:35;45191.88;;;-143.84;65.83
6032;BME280;3044;43.232;27.972;2024-03-23T01:44:05;45201.41;;;-143.84;65.74
6032;BME280;3044;43.232;27.972;2024-03-23T01:46:33;45193.78;;;-143.84;65.51
6032;BME280;3044;43.232;27.972;2024-03-23T01:48:59;45161.41;;;-143.84;64.87
6032;BME280;3044;43.232;27.972;2024-03-23T01:51:27;45174.75;;;-143.84;64.98
6032;BME280;3044;43.232;27.972;2024-03-23T01:53:56;45195.69;;;-143.84;65.11
6032;BME280;3044;43.232;27.972;2024-03-23T01:56:26;45220.44;;;-143.84;65.25
6032;BME280;3044;43.232;27.972;2024-03-23T01:58:52;45191.88;;;-143.84;65.45
6032;BME280;3044;43.232;27.972;2024-03-23T02:01:21;45199.50;;;-143.84;65.28
6032;BME280;3044;43.232;27.972;2024-03-23T02:03:47;45167.13;;;-143.84;64.82
6032;BME280;3044;43.232;27.972;2024-03-23T02:06:14;45189.97;;;-143.84;64.97
6032;BME280;3044;43.232;27.972;2024-03-23T02:08:40;45189.97;;;-143.84;64.11
6032;BME280;3044;43.232;27.972;2024-03-23T02:11:08;45203.31;;;-143.84;64.28
6032;BME280;3044;43.232;27.972;2024-03-23T02:13:34;45186.16;;;-143.84;64.30
6032;BME280;3044;43.232;27.972;2024-03-23T02:16:01;45180.47;;;-143.84;64.60
6032;BME280;3044;43.232;27.972;2024-03-23T02:18:28;45212.84;;;-143.84;64.21
6032;BME280;3044;43.232;27.972;2024-03-23T02:20:55;45184.25;;;-143.84;64.42
6032;BME280;3044;43.232;27.972;2024-03-23T02:23:23;45174.75;;;-143.84;64.10
6032;BME280;3044;43.232;27.972;2024-03-23T02:25:51;45193.78;;;-143.84;64.25
6032;BME280;3044;43.232;27.972;2024-03-23T02:28:18;45188.06;;;-143.84;63.79
6032;BME280;3044;43.232;27.972;2024-03-23T02:30:45;45174.75;;;-143.84;64.39
6032;BME280;3044;43.232;27.972;2024-03-23T02:33:12;45199.50;;;-143.84;63.65
6032;BME280;3044;43.232;27.972;2024-03-23T02:35:39;45178.56;;;-143.84;63.83
6032;BME280;3044;43.232;27.972;2024-03-23T02:38:05;45201.41;;;-143.84;64.06
6032;BME280;3044;43.232;27.972;2024-03-23T02:40:33;45193.78;;;-143.84;63.93
6032;BME280;3044;43.232;27.972;2024-03-23T02:42:59;45170.94;;;-143.84;63.67
6032;BME280;3044;43.232;27.972;2024-03-23T02:45:27;45189.97;;;-143.84;63.45
6032;BME280;3044;43.232;27.972;2024-03-23T02:47:53;45157.59;;;-143.84;63.24
6032;BME280;3044;43.232;27.972;2024-03-23T02:50:21;45180.47;;;-143.84;63.54
6032;BME280;3044;43.232;27.972;2024-03-23T02:52:47;45222.34;;;-143.84;63.34
6032;BME280;3044;43.232;27.972;2024-03-23T02:55:14;45212.84;;;-143.84;63.17
6032;BME280;3044;43.232;27.972;2024-03-23T02:57:42;45151.91;;;-143.84;63.04
6032;BME280;3044;43.232;27.972;2024-03-23T03:00:10;45163.31;;;-143.84;63.17
6032;BME280;3044;43.232;27.972;2024-03-23T03:02:36;45176.66;;;-143.84;63.40
6032;BME280;3044;43.232;27.972;2024-03-23T03:05:04;45170.94;;;-143.84;62.80
6032;BME280;3044;43.232;27.972;2024-03-23T03:07:31;45176.66;;;-143.84;62.57
6032;BME280;3044;43.232;27.972;2024-03-23T03:09:58;45184.25;;;-143.84;62.57
6032;BME280;3044;43.232;27.972;2024-03-23T03:12:24;45199.50;;;-143.84;62.76
6032;BME280;3044;43.232;27.972;2024-03-23T03:14:53;45189.97;;;-143.84;62.65
6032;BME280;3044;43.232;27.972;2024-03-23T03:17:19;45188.06;;;-143.84;63.07
6032;BME280;3044;43.232;27.972;2024-03-23T03:19:46;45170.94;;;-143.84;62.34
6032;BME280;3044;43.232;27.972;2024-03-23T03:22:12;45203.31;;;-143.84;62.36
6032;BME280;3044;43.232;27.972;2024-03-23T03:24:39;45184.25;;;-143.84;62.40
6032;BME280;3044;43.232;27.972;2024-03-23T03:27:05;45170.94;;;-143.84;62.99
6032;BME280;3044;43.232;27.972;2024-03-23T03:29:33;45214.72;;;-143.84;62.86
6032;BME280;3044;43.232;27.972;2024-03-23T03:32:03;45172.84;;;-143.84;62.73
6032;BME280;3044;43.232;27.972;2024-03-23T03:34:30;45189.97;;;-143.84;62.86
6032;BME280;3044;43.232;27.972;2024-03-23T03:36:57;45205.22;;;-143.84;62.85
6032;BME280;3044;43.232;27.972;2024-03-23T03:39:24;45163.31;;;-143.84;63.42
6032;BME280;3044;43.232;27.972;2024-03-23T03:41:50;45184.25;;;-143.84;62.61
6032;BME280;3044;43.232;27.972;2024-03-23T03:44:17;45191.88;;;-143.84;62.88
6032;BME280;3044;43.232;27.972;2024-03-23T03:46:44;45188.06;;;-143.84;62.99
6032;BME280;3044;43.232;27.972;2024-03-23T03:49:12;45176.66;;;-143.84;62.97
6032;BME280;3044;43.232;27.972;2024-03-23T03:51:38;45197.59;;;-143.84;62.80
6032;BME280;3044;43.232;27.972;2024-03-23T03:54:05;45172.84;;;-143.84;62.76
6032;BME280;3044;43.232;27.972;2024-03-23T03:56:32;45212.84;;;-143.84;62.75
6032;BME280;3044;43.232;27.972;2024-03-23T03:58:59;45188.06;;;-143.84;62.96
6032;BME280;3044;43.232;27.972;2024-03-23T04:01:25;45188.06;;;-143.84;62.80
6032;BME280;3044;43.232;27.972;2024-03-23T04:03:52;45167.13;;;-143.84;62.30
6032;BME280;3044;43.232;27.972;2024-03-23T04:06:22;45163.31;;;-143.84;62.44
6032;BME280;3044;43.232;27.972;2024-03-23T04:08:49;45184.25;;;-143.84;61.93
6032;BME280;3044;43.232;27.972;2024-03-23T04:11:15;45176.66;;;-143.84;61.84
6032;BME280;3044;43.232;27.972;2024-03-23T04:13:43;45197.59;;;-143.84;61.57
6032;BME280;3044;43.232;27.972;2024-03-23T04:16:09;45176.66;;;-143.84;62.01
6032;BME280;3044;43.232;27.972;2024-03-23T04:18:36;45193.78;;;-143.84;62.26
6032;BME280;3044;43.232;27.972;2024-03-23T04:21:03;45178.56;;;-143.84;62.20
6032;BME280;3044;43.232;27.972;2024-03-23T04:23:31;45146.19;;;-143.84;61.87
6032;BME280;3044;43.232;27.972;2024-03-23T04:26:03;45189.97;;;-143.84;61.92
6032;BME280;3044;43.232;27.972;2024-03-23T04:28:30;45191.88;;;-143.84;61.63
6032;BME280;3044;43.232;27.972;2024-03-23T04:30:56;45193.78;;;-143.84;62.14
6032;BME280;3044;43.232;27.972;2024-03-23T04:33:24;45174.75;;;-143.84;61.92
6032;BME280;3044;43.232;27.972;2024-03-23T04:35:50;45188.06;;;-143.84;61.89
6032;BME280;3044;43.232;27.972;2024-03-23T04:38:17;45180.47;;;-143.84;61.89
6032;BME280;3044;43.232;27.972;2024-03-23T04:40:54;45165.22;;;-143.84;62.12
6032;BME280;3044;43.232;27.972;2024-03-23T04:43:21;45172.84;;;-143.84;62.19
6032;BME280;3044;43.232;27.972;2024-03-23T04:45:48;45159.50;;;-143.84;69.99
6032;BME280;3044;43.232;27.972;2024-03-23T04:48:15;45184.25;;;-143.84;71.03
6032;BME280;3044;43.232;27.972;2024-03-23T04:50:41;45151.91;;;-143.84;66.67
6032;BME280;3044;43.232;27.972;2024-03-23T04:53:09;45178.56;;;-143.84;63.11
6032;BME280;3044;43.232;27.972;2024-03-23T04:55:36;45189.97;;;-143.84;61.24
6032;BME280;3044;43.232;27.972;2024-03-23T04:58:04;45155.69;;;-143.84;60.30
6032;BME280;3044;43.232;27.972;2024-03-23T05:00:30;45172.84;;;-143.84;59.39
6032;BME280;3044;43.232;27.972;2024-03-23T05:02:58;45170.94;;;-143.84;59.73
6032;BME280;3044;43.232;27.972;2024-03-23T05:05:24;45188.06;;;-143.84;58.96
6032;BME280;3044;43.232;27.972;2024-03-23T05:07:51;45167.13;;;-143.84;56.08
6032;BME280;3044;43.232;27.972;2024-03-23T05:10:17;45148.09;;;-143.84;54.84
6032;BME280;3044;43.232;27.972;2024-03-23T05:12:44;45167.13;;;-143.84;53.82
6032;BME280;3044;43.232;27.972;2024-03-23T05:15:12;45155.69;;;-143.84;51.62
6032;BME280;3044;43.232;27.972;2024-03-23T05:17:39;45153.81;;;-143.84;50.53
6032;BME280;3044;43.232;27.972;2024-03-23T05:20:06;45172.84;;;-143.84;49.79
6032;BME280;3044;43.232;27.972;2024-03-23T05:22:35;45155.69;;;-143.84;49.02
6032;BME280;3044;43.232;27.972;2024-03-23T05:25:01;45150.00;;;-143.84;48.10
6032;BME280;3044;43.232;27.972;2024-03-23T05:27:31;45132.84;;;-143.84;47.71
6032;BME280;3044;43.232;27.972;2024-03-23T05:29:57;45167.13;;;-143.84;47.49
6032;BME280;3044;43.232;27.972;2024-03-23T05:32:25;45136.66;;;-143.84;47.15
6032;BME280;3044;43.232;27.972;2024-03-23T05:34:52;45153.81;;;-143.84;46.73
6032;BME280;3044;43.232;27.972;2024-03-23T05:37:21;45153.81;;;-143.84;46.19
6032;BME280;3044;43.232;27.972;2024-03-23T05:39:47;45167.13;;;-143.84;46.15
6032;BME280;3044;43.232;27.972;2024-03-23T05:42:15;45127.13;;;-143.84;45.98
6032;BME280;3044;43.232;27.972;2024-03-23T05:44:43;45142.38;;;-143.84;45.67
6032;BME280;3044;43.232;27.972;2024-03-23T05:47:11;45155.69;;;-143.84;45.26
6032;BME280;3044;43.232;27.972;2024-03-23T05:49:39;45115.72;;;-143.84;44.82
6032;BME280;3044;43.232;27.972;2024-03-23T05:52:07;45153.81;;;-143.84;45.00
6032;BME280;3044;43.232;27.972;2024-03-23T05:54:34;45146.19;;;-143.84;44.23
6032;BME280;3044;43.232;27.972;2024-03-23T05:57:01;45132.84;;;-143.84;43.92
6032;BME280;3044;43.232;27.972;2024-03-23T05:59:27;45148.09;;;-143.84;43.45
6032;BME280;3044;43.232;27.972;2024-03-23T06:01:54;45130.94;;;-143.84;43.10
6032;BME280;3044;43.232;27.972;2024-03-23T06:04:21;45132.84;;;-143.84;42.65
6032;BME280;3044;43.232;27.972;2024-03-23T06:06:51;45138.56;;;-143.84;41.67
6032;BME280;3044;43.232;27.972;2024-03-23T06:09:18;45132.84;;;-143.84;41.53
6032;BME280;3044;43.232;27.972;2024-03-23T06:11:46;45100.47;;;-143.84;41.46
6032;BME280;3044;43.232;27.972;2024-03-23T06:14:12;45144.28;;;-143.84;41.60
6032;BME280;3044;43.232;27.972;2024-03-23T06:16:39;45140.47;;;-143.84;41.04
6032;BME280;3044;43.232;27.972;2024-03-23T06:19:05;45127.13;;;-143.84;41.41
6032;BME280;3044;43.232;27.972;2024-03-23T06:21:32;45138.56;;;-143.84;41.45
6032;BME280;3044;43.232;27.972;2024-03-23T06:24:00;45146.19;;;-143.84;40.71
6032;BME280;3044;43.232;27.972;2024-03-23T06:26:27;45098.56;;;-143.84;40.92
6032;BME280;3044;43.232;27.972;2024-03-23T06:28:53;45130.94;;;-143.84;40.34
6032;BME280;3044;43.232;27.972;2024-03-23T06:31:21;45110.00;;;-143.84;40.55
6032;BME280;3044;43.232;27.972;2024-03-23T06:33:47;45121.44;;;-143.84;39.94
6032;BME280;3044;43.232;27.972;2024-03-23T06:36:14;45106.19;;;-143.84;39.92
6032;BME280;3044;43.232;27.972;2024-03-23T06:38:40;45108.09;;;-143.84;39.78
6032;BME280;3044;43.232;27.972;2024-03-23T06:41:09;45113.81;;;-143.84;40.05
6032;BME280;3044;43.232;27.972;2024-03-23T06:43:35;45106.19;;;-143.84;39.49
6032;BME280;3044;43.232;27.972;2024-03-23T06:46:03;45119.53;;;-143.84;39.51
6032;BME280;3044;43.232;27.972;2024-03-23T06:48:30;45102.38;;;-143.84;39.41
6032;BME280;3044;43.232;27.972;2024-03-23T06:50:57;45087.16;;;-143.84;39.18
6032;BME280;3044;43.232;27.972;2024-03-23T06:53:23;45100.47;;;-143.84;39.43
6032;BME280;3044;43.232;27.972;2024-03-23T06:55:51;45090.97;;;-143.84;39.40
6032;BME280;3044;43.232;27.972;2024-03-23T06:58:20;45115.72;;;-143.84;39.11
6032;BME280;3044;43.232;27.972;2024-03-23T07:00:47;45102.38;;;-143.84;38.80
6032;BME280;3044;43.232;27.972;2024-03-23T07:03:14;45104.28;;;-143.84;38.86
6032;BME280;3044;43.232;27.972;2024-03-23T07:05:41;45129.03;;;-143.84;38.75
6032;BME280;3044;43.232;27.972;2024-03-23T07:08:08;45098.56;;;-143.84;39.39
6032;BME280;3044;43.232;27.972;2024-03-23T07:10:37;45098.56;;;-143.84;39.08
6032;BME280;3044;43.232;27.972;2024-03-23T07:13:04;45108.09;;;-143.84;39.46
6032;BME280;3044;43.232;27.972;2024-03-23T07:15:33;45119.53;;;-143.84;38.70
6032;BME280;3044;43.232;27.972;2024-03-23T07:17:59;45119.53;;;-143.84;39.58
6032;BME280;3044;43.232;27.972;2024-03-23T07:20:26;45121.44;;;-143.84;38.99
6032;BME280;3044;43.232;27.972;2024-03-23T07:22:53;45108.09;;;-143.84;38.64
6032;BME280;3044;43.232;27.972;2024-03-23T07:25:20;45102.38;;;-143.84;39.27
6032;BME280;3044;43.232;27.972;2024-03-23T07:27:47;45113.81;;;-143.84;39.35
6032;BME280;3044;43.232;27.972;2024-03-23T07:30:14;45117.63;;;-143.84;38.55
6032;BME280;3044;43.232;27.972;2024-03-23T07:32:44;45102.38;;;-143.84;38.75
6032;BME280;3044;43.232;27.972;2024-03-23T07:35:11;45110.00;;;-143.84;38.57
6032;BME280;3044;43.232;27.972;2024-03-23T07:37:37;45121.44;;;-143.84;39.05
6032;BME280;3044;43.232;27.972;2024-03-23T07:40:05;45125.22;;;-143.84;38.26
6032;BME280;3044;43.232;27.972;2024-03-23T07:42:32;45108.09;;;-143.84;38.69
6032;BME280;3044;43.232;27.972;2024-03-23T07:44:59;45090.97;;;-143.84;38.69
6032;BME280;3044;43.232;27.972;2024-03-23T07:47:25;45117.63;;;-143.84;39.19
6032;BME280;3044;43.232;27.972;2024-03-23T07:49:54;45130.94;;;-143.84;39.09
6032;BME280;3044;43.232;27.972;2024-03-23T07:52:20;45087.16;;;-143.84;38.99
6032;BME280;3044;43.232;27.972;2024-03-23T07:54:47;45108.09;;;-143.84;38.63
6032;BME280;3044;43.232;27.972;2024-03-23T07:57:13;45098.56;;;-143.84;38.93
6032;BME280;3044;43.232;27.972;2024-03-23T07:59:40;45106.19;;;-143.84;39.23
6032;BME280;3044;43.232;27.972;2024-03-23T08:02:06;45130.94;;;-143.84;38.78
6032;BME280;3044;43.232;27.972;2024-03-23T08:04:33;45087.16;;;-143.84;38.32
6032;BME280;3044;43.232;27.972;2024-03-23T08:07:01;45129.03;;;-143.84;38.72
6032;BME280;3044;43.232;27.972;2024-03-23T08:09:28;45102.38;;;-143.84;38.41
6032;BME280;3044;43.232;27.972;2024-03-23T08:11:54;45113.81;;;-143.84;38.16
6032;BME280;3044;43.232;27.972;2024-03-23T08:14:21;45098.56;;;-143.84;38.37
6032;BME280;3044;43.232;27.972;2024-03-23T08:16:48;45113.81;;;-143.84;39.37
6032;BME280;3044;43.232;27.972;2024-03-23T08:19:16;45104.28;;;-143.84;38.81
6032;BME280;3044;43.232;27.972;2024-03-23T08:21:42;45089.06;;;-143.84;37.64
6032;BME280;3044;43.232;27.972;2024-03-23T08:24:11;45096.66;;;-143.84;39.09
6032;BME280;3044;43.232;27.972;2024-03-23T08:26:37;45108.09;;;-143.84;38.52
6032;BME280;3044;43.232;27.972;2024-03-23T08:29:05;45079.53;;;-143.84;38.76
6032;BME280;3044;43.232;27.972;2024-03-23T08:31:31;45104.28;;;-143.84;37.72
6032;BME280;3044;43.232;27.972;2024-03-23T08:33:58;45100.47;;;-143.84;37.73
6032;BME280;3044;43.232;27.972;2024-03-23T08:36:24;45081.44;;;-143.84;36.96
6032;BME280;3044;43.232;27.972;2024-03-23T08:38:51;45077.63;;;-143.84;37.08
6032;BME280;3044;43.232;27.972;2024-03-23T08:41:20;45090.97;;;-143.84;37.28
6032;BME280;3044;43.232;27.972;2024-03-23T08:43:48;45106.19;;;-143.84;37.42
6032;BME280;3044;43.232;27.972;2024-03-23T08:46:15;45096.66;;;-143.84;37.11
6032;BME280;3044;43.232;27.972;2024-03-23T08:48:44;45073.81;;;-143.84;36.53
6032;BME280;3044;43.232;27.972;2024-03-23T08:51:12;45090.97;;;-143.84;36.67
6032;BME280;3044;43.232;27.972;2024-03-23T08:53:40;45090.97;;;-143.84;37.51
6032;BME280;3044;43.232;27.972;2024-03-23T08:56:08;45079.53;;;-143.84;37.00
6032;BME280;3044;43.232;27.972;2024-03-23T08:58:37;45075.72;;;-143.84;37.56
6032;BME280;3044;43.232;27.972;2024-03-23T09:01:06;45092.88;;;-143.84;38.88
6032;BME280;3044;43.232;27.972;2024-03-23T09:03:33;45071.91;;;-143.84;37.71
6032;BME280;3044;43.232;27.972;2024-03-23T09:06:01;45102.38;;;-143.84;36.29
6032;BME280;3044;43.232;27.972;2024-03-23T09:08:28;45090.97;;;-143.84;37.67
6032;BME280;3044;43.232;27.972;2024-03-23T09:10:55;45087.16;;;-143.84;38.14
6032;BME280;3044;43.232;27.972;2024-03-23T09:13:21;45096.66;;;-143.84;38.52
6032;BME280;3044;43.232;27.972;2024-03-23T09:15:51;45090.97;;;-143.84;38.76
6032;BME280;3044;43.232;27.972;2024-03-23T09:18:22;45102.38;;;-143.84;40.08
6032;BME280;3044;43.232;27.972;2024-03-23T09:20:49;45094.78;;;-143.84;38.32
6032;BME280;3044;43.232;27.972;2024-03-23T09:23:15;45077.63;;;-143.84;39.14
6032;BME280;3044;43.232;27.972;2024-03-23T09:25:42;45087.16;;;-143.84;39.17
6032;BME280;3044;43.232;27.972;2024-03-23T09:28:08;45092.88;;;-143.84;37.87
6032;BME280;3044;43.232;27.972;2024-03-23T09:30:36;45094.78;;;-143.84;38.09
6032;BME280;3044;43.232;27.972;2024-03-23T09:33:09;45090.97;;;-143.84;37.85
6032;BME280;3044;43.232;27.972;2024-03-23T09:35:37;45117.63;;;-143.84;37.55
6032;BME280;3044;43.232;27.972;2024-03-23T09:38:03;45104.28;;;-143.84;40.03
6032;BME280;3044;43.232;27.972;2024-03-23T09:40:33;45096.66;;;-143.84;39.16
6032;BME280;3044;43.232;27.972;2024-03-23T09:42:59;45083.34;;;-143.84;38.78
6032;BME280;3044;43.232;27.972;2024-03-23T09:45:27;45096.66;;;-143.84;41.05
6032;BME280;3044;43.232;27.972;2024-03-23T09:47:54;45108.09;;;-143.84;39.18
6032;BME280;3044;43.232;27.972;2024-03-23T09:50:23;45071.91;;;-143.84;38.54
6032;BME280;3044;43.232;27.972;2024-03-23T09:52:49;45079.53;;;-143.84;39.59
6032;BME280;3044;43.232;27.972;2024-03-23T09:55:17;45071.91;;;-143.84;39.71
6032;BME280;3044;43.232;27.972;2024-03-23T09:57:43;45090.97;;;-143.84;39.21
6032;BME280;3044;43.232;27.972;2024-03-23T10:00:12;45100.47;;;-143.84;39.63
6032;BME280;3044;43.232;27.972;2024-03-23T10:02:38;45104.28;;;-143.84;40.56
6032;BME280;3044;43.232;27.972;2024-03-23T10:05:19;45102.38;;;-143.84;39.20
6032;BME280;3044;43.232;27.972;2024-03-23T10:07:47;45115.72;;;-143.84;39.72
6032;BME280;3044;43.232;27.972;2024-03-23T10:10:16;45089.06;;;-143.84;39.37
6032;BME280;3044;43.232;27.972;2024-03-23T10:12:44;45117.63;;;-143.84;39.51
6032;BME280;3044;43.232;27.972;2024-03-23T10:15:18;45090.97;;;-143.84;39.09
6032;BME280;3044;43.232;27.972;2024-03-23T10:17:44;45106.19;;;-143.84;39.22
6032;BME280;3044;43.232;27.972;2024-03-23T10:20:12;45113.81;;;-143.84;38.75
6032;BME280;3044;43.232;27.972;2024-03-23T10:22:38;45094.78;;;-143.84;38.26
6032;BME280;3044;43.232;27.972;2024-03-23T10:25:10;45096.66;;;-143.84;38.90
6032;BME280;3044;43.232;27.972;2024-03-23T10:27:36;45104.28;;;-143.84;38.21
6032;BME280;3044;43.232;27.972;2024-03-23T10:30:11;45104.28;;;-143.84;38.64
6032;BME280;3044;43.232;27.972;2024-03-23T10:32:38;45094.78;;;-143.84;38.46
6032;BME280;3044;43.232;27.972;2024-03-23T10:35:15;45098.56;;;-143.84;38.82
6032;BME280;3044;43.232;27.972;2024-03-23T10:37:42;45087.16;;;-143.84;38.98
6032;BME280;3044;43.232;27.972;2024-03-23T10:40:12;45125.22;;;-143.84;38.78
6032;BME280;3044;43.232;27.972;2024-03-23T10:42:39;45108.09;;;-143.84;40.09
6032;BME280;3044;43.232;27.972;2024-03-23T10:45:07;45098.56;;;-143.84;38.96
6032;BME280;3044;43.232;27.972;2024-03-23T10:47:35;45110.00;;;-143.84;39.06
6032;BME280;3044;43.232;27.972;2024-03-23T10:50:02;45098.56;;;-143.84;38.65
6032;BME280;3044;43.232;27.972;2024-03-23T10:52:31;45104.28;;;-143.84;38.51
6032;BME280;3044;43.232;27.972;2024-03-23T10:54:57;45106.19;;;-143.84;37.33
6032;BME280;3044;43.232;27.972;2024-03-23T10:57:30;45092.88;;;-143.84;38.48
6032;BME280;3044;43.232;27.972;2024-03-23T10:59:58;45081.44;;;-143.84;39.09
6032;BME280;3044;43.232;27.972;2024-03-23T11:02:26;45087.16;;;-143.84;38.74
6032;BME280;3044;43.232;27.972;2024-03-23T11:04:53;45100.47;;;-143.84;39.09
6032;BME280;3044;43.232;27.972;2024-03-23T11:07:30;45104.28;;;-143.84;42.29
6032;BME280;3044;43.232;27.972;2024-03-23T11:09:57;45102.38;;;-143.84;40.12
6032;BME280;3044;43.232;27.972;2024-03-23T11:12:32;45115.72;;;-143.84;39.63
6032;BME280;3044;43.232;27.972;2024-03-23T11:15:04;45083.34;;;-143.84;39.90
6032;BME280;3044;43.232;27.972;2024-03-23T11:17:31;45090.97;;;-143.84;38.89
6032;BME280;3044;43.232;27.972;2024-03-23T11:19:58;45110.00;;;-143.84;40.41
6032;BME280;3044;43.232;27.972;2024-03-23T11:22:44;45108.09;;;-143.84;39.54
6032;BME280;3044;43.232;27.972;2024-03-23T11:25:13;45113.81;;;-143.84;40.63
6032;BME280;3044;43.232;27.972;2024-03-23T11:27:43;45087.16;;;-143.84;43.49
6032;BME280;3044;43.232;27.972;2024-03-23T11:30:15;45096.66;;;-143.84;43.46
6032;BME280;3044;43.232;27.972;2024-03-23T11:32:44;45106.19;;;-143.84;43.87
6032;BME280;3044;43.232;27.972;2024-03-23T11:35:10;45129.03;;;-143.84;42.71
6032;BME280;3044;43.232;27.972;2024-03-23T11:37:37;45119.53;;;-143.84;42.36
6032;BME280;3044;43.232;27.972;2024-03-23T11:40:20;45121.44;;;-143.84;43.19
6032;BME280;3044;43.232;27.972;2024-03-23T11:42:55;45104.28;;;-143.84;43.31
6032;BME280;3044;43.232;27.972;2024-03-23T11:45:22;45098.56;;;-143.84;41.04
6032;BME280;3044;43.232;27.972;2024-03-23T11:48:01;45106.19;;;-143.84;41.26
6032;BME280;3044;43.232;27.972;2024-03-23T11:50:28;45111.91;;;-143.84;41.40
6032;BME280;3044;43.232;27.972;2024-03-23T11:53:07;45113.81;;;-143.84;42.32
6032;BME280;3044;43.232;27.972;2024-03-23T11:55:39;45132.84;;;-143.84;41.80
6032;BME280;3044;43.232;27.972;2024-03-23T11:58:08;45106.19;;;-143.84;40.80
6032;BME280;3044;43.232;27.972;2024-03-23T12:00:34;45110.00;;;-143.84;41.17
6032;BME280;3044;43.232;27.972;2024-03-23T12:03:02;45106.19;;;-143.84;41.82
6032;BME280;3044;43.232;27.972;2024-03-23T12:05:28;45113.81;;;-143.84;42.54
6032;BME280;3044;43.232;27.972;2024-03-23T12:08:15;45113.81;;;-143.84;40.40
6032;BME280;3044;43.232;27.972;2024-03-23T12:10:44;45129.03;;;-143.84;42.19
6032;BME280;3044;43.232;27.972;2024-03-23T12:13:15;45102.38;;;-143.84;41.17
6032;BME280;3044;43.232;27.972;2024-03-23T12:15:43;45117.63;;;-143.84;40.98
6032;BME280;3044;43.232;27.972;2024-03-23T12:18:10;45108.09;;;-143.84;40.31
6032;BME280;3044;43.232;27.972;2024-03-23T12:20:37;45106.19;;;-143.84;40.36
6032;BME280;3044;43.232;27.972;2024-03-23T12:23:09;45102.38;;;-143.84;41.07
6032;BME280;3044;43.232;27.972;2024-03-23T12:25:37;45115.72;;;-143.84;40.66
6032;BME280;3044;43.232;27.972;2024-03-23T12:28:04;45110.00;;;-143.84;41.81
6032;BME280;3044;43.232;27.972;2024-03-23T12:30:34;45089.06;;;-143.84;42.25
6032;BME280;3044;43.232;27.972;2024-03-23T12:33:02;45094.78;;;-143.84;41.08
6032;BME280;3044;43.232;27.972;2024-03-23T12:35:29;45130.94;;;-143.84;38.89
6032;BME280;3044;43.232;27.972;2024-03-23T12:37:57;45125.22;;;-143.84;41.17
6032;BME280;3044;43.232;27.972;2024-03-23T12:40:23;45111.91;;;-143.84;42.46
6032;BME280;3044;43.232;27.972;2024-03-23T12:42:50;45115.72;;;-143.84;44.48
6032;BME280;3044;43.232;27.972;2024-03-23T12:45:16;45123.34;;;-143.84;47.57
6032;BME280;3044;43.232;27.972;2024-03-23T12:47:45;45125.22;;;-143.84;48.74
6032;BME280;3044;43.232;27.972;2024-03-23T12:50:11;45115.72;;;-143.84;50.92
6032;BME280;3044;43.232;27.972;2024-03-23T12:52:38;45106.19;;;-143.84;51.08
6032;BME280;3044;43.232;27.972;2024-03-23T12:55:05;45110.00;;;-143.84;52.28
6032;BME280;3044;43.232;27.972;2024-03-23T12:57:32;45127.13;;;-143.84;56.27
6032;BME280;3044;43.232;27.972;2024-03-23T12:59:59;45111.91;;;-143.84;57.89
6032;BME280;3044;43.232;27.972;2024-03-23T13:02:26;45125.22;;;-143.84;60.99
6032;BME280;3044;43.232;27.972;2024-03-23T13:04:54;45096.66;;;-143.84;60.82
6032;BME280;3044;43.232;27.972;2024-03-23T13:07:22;45129.03;;;-143.84;64.16
6032;BME280;3044;43.232;27.972;2024-03-23T13:09:50;45113.81;;;-143.84;66.10
6032;BME280;3044;43.232;27.972;2024-03-23T13:12:18;45127.13;;;-143.84;67.13
6032;BME280;3044;43.232;27.972;2024-03-23T13:14:44;45113.81;;;-143.84;66.32
6032;BME280;3044;43.232;27.972;2024-03-23T13:17:11;45104.28;;;-143.84;66.70
6032;BME280;3044;43.232;27.972;2024-03-23T13:19:38;45146.19;;;-143.84;67.15
6032;BME280;3044;43.232;27.972;2024-03-23T13:22:06;45136.66;;;-143.84;68.27
6032;BME280;3044;43.232;27.972;2024-03-23T13:24:32;45119.53;;;-143.84;66.38
6032;BME280;3044;43.232;27.972;2024-03-23T13:27:00;45117.63;;;-143.84;69.14
6032;BME280;3044;43.232;27.972;2024-03-23T13:29:26;45125.22;;;-143.84;66.36
6032;BME280;3044;43.232;27.972;2024-03-23T13:31:53;45138.56;;;-143.84;64.50
6032;BME280;3044;43.232;27.972;2024-03-23T13:34:19;45115.72;;;-143.84;64.90
6032;BME280;3044;43.232;27.972;2024-03-23T13:36:47;45113.81;;;-143.84;63.49
6032;BME280;3044;43.232;27.972;2024-03-23T13:39:15;45148.09;;;-143.84;62.32
6032;BME280;3044;43.232;27.972;2024-03-23T13:41:43;45127.13;;;-143.84;65.11
6032;BME280;3044;43.232;27.972;2024-03-23T13:44:10;45119.53;;;-143.84;65.23